sensor_id;sensor_type;location;lat;lon;timestamp;temperature;humidity
67192;HTU21D;54120;53.504;49.426;2023-02-28T00:00:27;-0.61;73.74
67192;HTU21D;54120;53.504;49.426;2023-02-28T00:02:53;-0.60;73.80
67192;HTU21D;54120;53.504;49.426;2023-02-28T00:05:21;-0.65;74.03
67192;HTU21D;54120;53.504;49.426;2023-02-28T00:07:49;-0.67;73.74
67192;HTU21D;54120;53.504;49.426;2023-02-28T00:10:18;-0.70;74.44
67192;HTU21D;54120;53.504;49.426;2023-02-28T00:12:50;-0.72;74.72
67192;HTU21D;54120;53.504;49.426;2023-02-28T00:15:17;-0.74;74.97
67192;HTU21D;54120;53.504;49.426;2023-02-28T00:17:44;-0.74;75.57
67192;HTU21D;54120;53.504;49.426;2023-02-28T00:20:11;-0.74;75.50
67192;HTU21D;54120;53.504;49.426;2023-02-28T00:22:39;-0.75;74.87
67192;HTU21D;54120;53.504;49.426;2023-02-28T00:25:06;-0.75;75.21
67192;HTU21D;54120;53.504;49.426;2023-02-28T00:27:34;-0.79;75.50
67192;HTU21D;54120;53.504;49.426;2023-02-28T00:30:01;-0.79;75.44
67192;HTU21D;54120;53.504;49.426;2023-02-28T00:32:27;-0.77;76.61
67192;HTU21D;54120;53.504;49.426;2023-02-28T00:34:53;-0.80;75.08
67192;HTU21D;54120;53.504;49.426;2023-02-28T00:37:19;-0.83;75.73
67192;HTU21D;54120;53.504;49.426;2023-02-28T00:39:45;-0.83;75.87
67192;HTU21D;54120;53.504;49.426;2023-02-28T00:42:11;-0.83;75.79
67192;HTU21D;54120;53.504;49.426;2023-02-28T00:44:37;-0.83;75.83
67192;HTU21D;54120;53.504;49.426;2023-02-28T00:47:04;-0.84;75.92
67192;HTU21D;54120;53.504;49.426;2023-02-28T00:49:30;-0.80;75.86
67192;HTU21D;54120;53.504;49.426;2023-02-28T00:51:57;-0.75;76.66
67192;HTU21D;54120;53.504;49.426;2023-02-28T00:54:23;-0.74;74.57
67192;HTU21D;54120;53.504;49.426;2023-02-28T00:56:49;-0.73;74.77
67192;HTU21D;54120;53.504;49.426;2023-02-28T00:59:17;-0.75;75.57
67192;HTU21D;54120;53.504;49.426;2023-02-28T01:01:44;-0.75;76.00
67192;HTU21D;54120;53.504;49.426;2023-02-28T01:04:11;-0.80;74.76
67192;HTU21D;54120;53.504;49.426;2023-02-28T01:06:38;-0.80;76.10
67192;HTU21D;54120;53.504;49.426;2023-02-28T01:09:05;-0.76;75.44
67192;HTU21D;54120;53.504;49.426;2023-02-28T01:11:32;-0.76;74.76
67192;HTU21D;54120;53.504;49.426;2023-02-28T01:13:59;-0.76;75.08
67192;HTU21D;54120;53.504;49.426;2023-02-28T01:16:25;-0.77;74.28
67192;HTU21D;54120;53.504;49.426;2023-02-28T01:18:52;-0.81;75.65
67192;HTU21D;54120;53.504;49.426;2023-02-28T01:21:20;-0.81;75.72
67192;HTU21D;54120;53.504;49.426;2023-02-28T01:23:47;-0.81;76.05
67192;HTU21D;54120;53.504;49.426;2023-02-28T01:26:19;-0.81;74.89
67192;HTU21D;54120;53.504;49.426;2023-02-28T01:28:46;-0.81;74.73
67192;HTU21D;54120;53.504;49.426;2023-02-28T01:31:12;-0.82;75.26
67192;HTU21D;54120;53.504;49.426;2023-02-28T01:33:38;-0.81;75.12
67192;HTU21D;54120;53.504;49.426;2023-02-28T01:36:13;-0.84;74.96
67192;HTU21D;54120;53.504;49.426;2023-02-28T01:38:39;-0.82;73.32
67192;HTU21D;54120;53.504;49.426;2023-02-28T01:41:07;-0.84;73.81
67192;HTU21D;54120;53.504;49.426;2023-02-28T01:46:09;-0.84;74.31
67192;HTU21D;54120;53.504;49.426;2023-02-28T01:48:45;-0.87;73.99
67192;HTU21D;54120;53.504;49.426;2023-02-28T01:51:22;-0.82;74.62
67192;HTU21D;54120;53.504;49.426;2023-02-28T01:53:54;-0.82;74.41
67192;HTU21D;54120;53.504;49.426;2023-02-28T01:56:25;-0.84;73.14
67192;HTU21D;54120;53.504;49.426;2023-02-28T01:58:53;-0.89;72.96
67192;HTU21D;54120;53.504;49.426;2023-02-28T02:01:24;-0.90;73.19
67192;HTU21D;54120;53.504;49.426;2023-02-28T02:03:55;-0.91;73.99
67192;HTU21D;54120;53.504;49.426;2023-02-28T02:06:47;-0.84;74.18
67192;HTU21D;54120;53.504;49.426;2023-02-28T02:09:13;-0.87;72.78
67192;HTU21D;54120;53.504;49.426;2023-02-28T02:11:42;-0.87;74.53
67192;HTU21D;54120;53.504;49.426;2023-02-28T02:22:55;-0.97;72.31
67192;HTU21D;54120;53.504;49.426;2023-02-28T02:25:41;-0.96;72.04
67192;HTU21D;54120;53.504;49.426;2023-02-28T02:34:35;-0.99;73.23
67192;HTU21D;54120;53.504;49.426;2023-02-28T02:39:29;-1.04;72.48
67192;HTU21D;54120;53.504;49.426;2023-02-28T02:42:00;-1.04;72.18
67192;HTU21D;54120;53.504;49.426;2023-02-28T02:44:31;-1.06;73.17
67192;HTU21D;54120;53.504;49.426;2023-02-28T02:47:08;-1.03;73.06
67192;HTU21D;54120;53.504;49.426;2023-02-28T02:49:37;-1.01;73.28
67192;HTU21D;54120;53.504;49.426;2023-02-28T02:52:07;-1.02;72.26
67192;HTU21D;54120;53.504;49.426;2023-02-28T02:54:37;-1.03;73.36
67192;HTU21D;54120;53.504;49.426;2023-02-28T02:57:07;-1.03;73.44
67192;HTU21D;54120;53.504;49.426;2023-02-28T02:59:36;-1.03;72.52
67192;HTU21D;54120;53.504;49.426;2023-02-28T03:02:06;-1.08;73.40
67192;HTU21D;54120;53.504;49.426;2023-02-28T03:04:51;-1.08;73.17
67192;HTU21D;54120;53.504;49.426;2023-02-28T03:07:18;-1.10;73.09
67192;HTU21D;54120;53.504;49.426;2023-02-28T03:09:52;-1.04;73.60
67192;HTU21D;54120;53.504;49.426;2023-02-28T03:12:19;-1.06;71.54
67192;HTU21D;54120;53.504;49.426;2023-02-28T03:14:56;-1.09;72.54
67192;HTU21D;54120;53.504;49.426;2023-02-28T03:17:42;-1.03;72.77
67192;HTU21D;54120;53.504;49.426;2023-02-28T03:20:15;-1.03;73.28
67192;HTU21D;54120;53.504;49.426;2023-02-28T03:22:51;-1.06;73.54
67192;HTU21D;54120;53.504;49.426;2023-02-28T03:28:21;-1.11;73.61
67192;HTU21D;54120;53.504;49.426;2023-02-28T03:30:52;-1.13;73.70
67192;HTU21D;54120;53.504;49.426;2023-02-28T03:33:27;-1.13;72.90
67192;HTU21D;54120;53.504;49.426;2023-02-28T03:36:01;-1.12;73.50
67192;HTU21D;54120;53.504;49.426;2023-02-28T03:41:05;-1.19;72.75
67192;HTU21D;54120;53.504;49.426;2023-02-28T03:43:36;-1.18;72.58
67192;HTU21D;54120;53.504;49.426;2023-02-28T03:46:08;-1.21;73.28
67192;HTU21D;54120;53.504;49.426;2023-02-28T03:49:11;-1.16;72.91
67192;HTU21D;54120;53.504;49.426;2023-02-28T03:51:41;-1.17;73.89
67192;HTU21D;54120;53.504;49.426;2023-02-28T03:54:16;-1.19;72.03
67192;HTU21D;54120;53.504;49.426;2023-02-28T03:56:48;-1.19;72.64
67192;HTU21D;54120;53.504;49.426;2023-02-28T04:01:48;-1.14;73.12
67192;HTU21D;54120;53.504;49.426;2023-02-28T04:04:16;-1.14;73.56
67192;HTU21D;54120;53.504;49.426;2023-02-28T04:06:43;-1.13;74.02
67192;HTU21D;54120;53.504;49.426;2023-02-28T04:09:11;-1.09;72.72
67192;HTU21D;54120;53.504;49.426;2023-02-28T04:11:40;-1.12;72.94
67192;HTU21D;54120;53.504;49.426;2023-02-28T04:14:08;-1.08;73.12
67192;HTU21D;54120;53.504;49.426;2023-02-28T04:16:37;-1.09;73.07
67192;HTU21D;54120;53.504;49.426;2023-02-28T04:19:05;-1.08;73.44
67192;HTU21D;54120;53.504;49.426;2023-02-28T04:21:34;-1.05;73.80
67192;HTU21D;54120;53.504;49.426;2023-02-28T04:24:00;-1.02;73.51
67192;HTU21D;54120;53.504;49.426;2023-02-28T04:26:34;-1.04;73.64
67192;HTU21D;54120;53.504;49.426;2023-02-28T04:29:01;-1.09;73.38
67192;HTU21D;54120;53.504;49.426;2023-02-28T04:31:27;-1.11;73.43
67192;HTU21D;54120;53.504;49.426;2023-02-28T04:33:53;-1.09;72.90
67192;HTU21D;54120;53.504;49.426;2023-02-28T04:36:19;-1.08;72.89
67192;HTU21D;54120;53.504;49.426;2023-02-28T04:38:46;-1.06;72.99
67192;HTU21D;54120;53.504;49.426;2023-02-28T04:41:13;-1.09;73.28
67192;HTU21D;54120;53.504;49.426;2023-02-28T04:43:39;-1.05;72.00
67192;HTU21D;54120;53.504;49.426;2023-02-28T04:46:06;-1.01;72.49
67192;HTU21D;54120;53.504;49.426;2023-02-28T04:48:34;-1.00;73.41
67192;HTU21D;54120;53.504;49.426;2023-02-28T04:51:06;-0.96;73.25
67192;HTU21D;54120;53.504;49.426;2023-02-28T04:53:33;-0.93;72.47
67192;HTU21D;54120;53.504;49.426;2023-02-28T04:55:59;-0.91;72.35
67192;HTU21D;54120;53.504;49.426;2023-02-28T04:58:25;-0.95;72.22
67192;HTU21D;54120;53.504;49.426;2023-02-28T05:00:54;-0.94;72.33
67192;HTU21D;54120;53.504;49.426;2023-02-28T05:03:27;-0.94;71.71
67192;HTU21D;54120;53.504;49.426;2023-02-28T05:05:53;-0.97;72.41
67192;HTU21D;54120;53.504;49.426;2023-02-28T05:08:19;-0.95;72.16
67192;HTU21D;54120;53.504;49.426;2023-02-28T05:10:45;-0.89;71.74
67192;HTU21D;54120;53.504;49.426;2023-02-28T05:13:13;-0.79;71.39
67192;HTU21D;54120;53.504;49.426;2023-02-28T05:15:40;-0.73;72.36
67192;HTU21D;54120;53.504;49.426;2023-02-28T05:18:08;-0.66;72.18
67192;HTU21D;54120;53.504;49.426;2023-02-28T05:20:34;-0.60;70.88
67192;HTU21D;54120;53.504;49.426;2023-02-28T05:23:00;-0.64;71.20
67192;HTU21D;54120;53.504;49.426;2023-02-28T05:25:27;-0.74;72.31
67192;HTU21D;54120;53.504;49.426;2023-02-28T05:27:53;-0.70;71.45
67192;HTU21D;54120;53.504;49.426;2023-02-28T05:30:19;-0.67;69.90
67192;HTU21D;54120;53.504;49.426;2023-02-28T05:32:50;-0.64;69.80
67192;HTU21D;54120;53.504;49.426;2023-02-28T05:35:16;-0.43;68.64
67192;HTU21D;54120;53.504;49.426;2023-02-28T05:37:42;-0.46;67.97
67192;HTU21D;54120;53.504;49.426;2023-02-28T05:40:09;-0.44;67.10
67192;HTU21D;54120;53.504;49.426;2023-02-28T05:42:38;-0.45;67.28
67192;HTU21D;54120;53.504;49.426;2023-02-28T05:45:05;-0.23;66.48
67192;HTU21D;54120;53.504;49.426;2023-02-28T05:47:32;-0.02;65.47
67192;HTU21D;54120;53.504;49.426;2023-02-28T05:49:58;0.08;64.42
67192;HTU21D;54120;53.504;49.426;2023-02-28T05:52:25;-0.10;64.41
67192;HTU21D;54120;53.504;49.426;2023-02-28T05:54:52;-0.03;65.31
67192;HTU21D;54120;53.504;49.426;2023-02-28T05:57:18;0.16;64.59
67192;HTU21D;54120;53.504;49.426;2023-02-28T05:59:44;0.24;65.23
67192;HTU21D;54120;53.504;49.426;2023-02-28T06:02:14;0.37;64.75
67192;HTU21D;54120;53.504;49.426;2023-02-28T06:04:41;0.27;63.67
67192;HTU21D;54120;53.504;49.426;2023-02-28T06:07:08;0.31;64.07
67192;HTU21D;54120;53.504;49.426;2023-02-28T06:09:35;0.48;64.76
67192;HTU21D;54120;53.504;49.426;2023-02-28T06:12:02;0.60;63.05
67192;HTU21D;54120;53.504;49.426;2023-02-28T06:14:33;0.60;62.39
67192;HTU21D;54120;53.504;49.426;2023-02-28T06:17:00;0.67;61.49
67192;HTU21D;54120;53.504;49.426;2023-02-28T06:19:27;0.65;61.86
67192;HTU21D;54120;53.504;49.426;2023-02-28T06:21:55;0.94;62.01
67192;HTU21D;54120;53.504;49.426;2023-02-28T06:24:24;1.24;60.48
67192;HTU21D;54120;53.504;49.426;2023-02-28T06:26:50;1.23;60.50
67192;HTU21D;54120;53.504;49.426;2023-02-28T06:29:16;1.32;59.93
67192;HTU21D;54120;53.504;49.426;2023-02-28T06:31:45;1.40;60.99
67192;HTU21D;54120;53.504;49.426;2023-02-28T06:34:11;1.76;59.64
67192;HTU21D;54120;53.504;49.426;2023-02-28T06:36:39;1.99;58.71
67192;HTU21D;54120;53.504;49.426;2023-02-28T06:39:05;2.10;58.67
67192;HTU21D;54120;53.504;49.426;2023-02-28T06:41:32;2.07;57.50
67192;HTU21D;54120;53.504;49.426;2023-02-28T06:44:14;2.01;58.13
67192;HTU21D;54120;53.504;49.426;2023-02-28T06:46:42;1.98;58.32
67192;HTU21D;54120;53.504;49.426;2023-02-28T06:49:09;2.21;58.87
67192;HTU21D;54120;53.504;49.426;2023-02-28T06:51:37;3.25;55.68
67192;HTU21D;54120;53.504;49.426;2023-02-28T06:54:04;3.49;54.48
67192;HTU21D;54120;53.504;49.426;2023-02-28T06:56:31;3.09;55.84
67192;HTU21D;54120;53.504;49.426;2023-02-28T06:58:57;2.66;58.32
67192;HTU21D;54120;53.504;49.426;2023-02-28T07:01:23;2.30;58.05
67192;HTU21D;54120;53.504;49.426;2023-02-28T07:03:50;1.91;61.00
67192;HTU21D;54120;53.504;49.426;2023-02-28T07:06:21;1.68;61.41
67192;HTU21D;54120;53.504;49.426;2023-02-28T07:08:52;1.50;61.63
67192;HTU21D;54120;53.504;49.426;2023-02-28T07:11:19;1.23;62.80
67192;HTU21D;54120;53.504;49.426;2023-02-28T07:13:47;1.27;62.71
67192;HTU21D;54120;53.504;49.426;2023-02-28T07:16:13;1.53;62.02
67192;HTU21D;54120;53.504;49.426;2023-02-28T07:18:39;1.46;59.90
67192;HTU21D;54120;53.504;49.426;2023-02-28T07:21:08;1.81;60.13
67192;HTU21D;54120;53.504;49.426;2023-02-28T07:23:35;2.41;57.98
67192;HTU21D;54120;53.504;49.426;2023-02-28T07:26:01;2.54;57.55
67192;HTU21D;54120;53.504;49.426;2023-02-28T07:28:27;2.71;57.28
67192;HTU21D;54120;53.504;49.426;2023-02-28T07:30:53;2.89;55.40
67192;HTU21D;54120;53.504;49.426;2023-02-28T07:33:19;2.81;56.40
67192;HTU21D;54120;53.504;49.426;2023-02-28T07:35:45;2.98;56.78
67192;HTU21D;54120;53.504;49.426;2023-02-28T07:38:12;2.90;55.81
67192;HTU21D;54120;53.504;49.426;2023-02-28T07:40:39;2.86;57.19
67192;HTU21D;54120;53.504;49.426;2023-02-28T07:43:05;3.13;56.34
67192;HTU21D;54120;53.504;49.426;2023-02-28T07:45:32;3.26;56.51
67192;HTU21D;54120;53.504;49.426;2023-02-28T07:48:00;2.69;57.52
67192;HTU21D;54120;53.504;49.426;2023-02-28T07:50:26;2.90;57.59
67192;HTU21D;54120;53.504;49.426;2023-02-28T07:52:58;2.49;58.64
67192;HTU21D;54120;53.504;49.426;2023-02-28T07:55:24;1.95;59.35
67192;HTU21D;54120;53.504;49.426;2023-02-28T07:57:50;2.23;59.61
67192;HTU21D;54120;53.504;49.426;2023-02-28T08:00:17;2.44;59.20
67192;HTU21D;54120;53.504;49.426;2023-02-28T08:02:43;2.68;58.64
67192;HTU21D;54120;53.504;49.426;2023-02-28T08:05:09;2.59;57.73
67192;HTU21D;54120;53.504;49.426;2023-02-28T08:07:35;2.56;59.32
67192;HTU21D;54120;53.504;49.426;2023-02-28T08:10:01;2.53;58.56
67192;HTU21D;54120;53.504;49.426;2023-02-28T08:12:27;2.46;58.45
67192;HTU21D;54120;53.504;49.426;2023-02-28T08:14:53;2.36;59.19
67192;HTU21D;54120;53.504;49.426;2023-02-28T08:17:19;2.46;58.94
67192;HTU21D;54120;53.504;49.426;2023-02-28T08:19:46;2.25;59.73
67192;HTU21D;54120;53.504;49.426;2023-02-28T08:22:12;2.17;59.59
67192;HTU21D;54120;53.504;49.426;2023-02-28T08:24:41;1.99;60.83
67192;HTU21D;54120;53.504;49.426;2023-02-28T08:27:08;2.09;59.41
67192;HTU21D;54120;53.504;49.426;2023-02-28T08:29:37;2.30;59.83
67192;HTU21D;54120;53.504;49.426;2023-02-28T08:32:04;2.62;57.65
67192;HTU21D;54120;53.504;49.426;2023-02-28T08:36:42;2.15;59.80
67192;HTU21D;54120;53.504;49.426;2023-02-28T08:39:11;2.05;60.03
67192;HTU21D;54120;53.504;49.426;2023-02-28T08:41:37;2.17;60.41
67192;HTU21D;54120;53.504;49.426;2023-02-28T08:44:03;2.53;58.97
67192;HTU21D;54120;53.504;49.426;2023-02-28T08:46:29;2.67;58.02
67192;HTU21D;54120;53.504;49.426;2023-02-28T08:48:56;2.86;57.90
67192;HTU21D;54120;53.504;49.426;2023-02-28T08:51:28;3.04;56.60
67192;HTU21D;54120;53.504;49.426;2023-02-28T08:53:59;3.18;55.60
67192;HTU21D;54120;53.504;49.426;2023-02-28T08:56:26;3.36;54.81
67192;HTU21D;54120;53.504;49.426;2023-02-28T08:58:55;3.13;55.89
67192;HTU21D;54120;53.504;49.426;2023-02-28T09:01:24;3.08;55.99
67192;HTU21D;54120;53.504;49.426;2023-02-28T09:03:51;3.21;55.94
67192;HTU21D;54120;53.504;49.426;2023-02-28T09:06:18;3.33;55.49
67192;HTU21D;54120;53.504;49.426;2023-02-28T09:08:45;3.30;56.39
67192;HTU21D;54120;53.504;49.426;2023-02-28T09:11:12;3.65;55.96
67192;HTU21D;54120;53.504;49.426;2023-02-28T09:13:39;3.38;55.70
67192;HTU21D;54120;53.504;49.426;2023-02-28T09:16:07;3.12;57.14
67192;HTU21D;54120;53.504;49.426;2023-02-28T09:18:35;2.55;57.78
67192;HTU21D;54120;53.504;49.426;2023-02-28T09:21:08;2.14;59.64
67192;HTU21D;54120;53.504;49.426;2023-02-28T09:23:36;1.84;60.69
67192;HTU21D;54120;53.504;49.426;2023-02-28T09:26:04;2.05;60.04
67192;HTU21D;54120;53.504;49.426;2023-02-28T09:28:30;2.55;59.61
67192;HTU21D;54120;53.504;49.426;2023-02-28T09:30:56;2.82;58.46
67192;HTU21D;54120;53.504;49.426;2023-02-28T09:33:26;2.98;57.11
67192;HTU21D;54120;53.504;49.426;2023-02-28T09:35:58;2.69;58.49
67192;HTU21D;54120;53.504;49.426;2023-02-28T09:38:26;3.03;56.28
67192;HTU21D;54120;53.504;49.426;2023-02-28T09:41:02;2.56;57.16
67192;HTU21D;54120;53.504;49.426;2023-02-28T09:43:34;2.52;57.70
67192;HTU21D;54120;53.504;49.426;2023-02-28T09:48:45;2.54;57.90
67192;HTU21D;54120;53.504;49.426;2023-02-28T09:51:44;2.23;59.69
67192;HTU21D;54120;53.504;49.426;2023-02-28T09:54:23;2.02;59.48
67192;HTU21D;54120;53.504;49.426;2023-02-28T09:59:45;1.83;60.91
67192;HTU21D;54120;53.504;49.426;2023-02-28T10:05:10;1.49;62.51
67192;HTU21D;54120;53.504;49.426;2023-02-28T10:10:50;1.49;62.89
67192;HTU21D;54120;53.504;49.426;2023-02-28T10:13:35;1.65;62.58
67192;HTU21D;54120;53.504;49.426;2023-02-28T10:16:14;1.81;62.79
67192;HTU21D;54120;53.504;49.426;2023-02-28T10:21:19;2.25;61.35
67192;HTU21D;54120;53.504;49.426;2023-02-28T10:23:48;2.11;61.06
67192;HTU21D;54120;53.504;49.426;2023-02-28T10:26:17;1.46;62.31
67192;HTU21D;54120;53.504;49.426;2023-02-28T10:28:43;1.22;63.22
67192;HTU21D;54120;53.504;49.426;2023-02-28T10:31:18;0.90;64.08
67192;HTU21D;54120;53.504;49.426;2023-02-28T10:33:45;0.65;65.44
67192;HTU21D;54120;53.504;49.426;2023-02-28T10:36:15;0.79;65.17
67192;HTU21D;54120;53.504;49.426;2023-02-28T10:38:43;0.66;64.80
67192;HTU21D;54120;53.504;49.426;2023-02-28T10:41:29;0.78;65.54
67192;HTU21D;54120;53.504;49.426;2023-02-28T10:44:21;0.72;65.10
67192;HTU21D;54120;53.504;49.426;2023-02-28T10:46:49;0.81;64.59
67192;HTU21D;54120;53.504;49.426;2023-02-28T10:49:23;0.72;64.28
67192;HTU21D;54120;53.504;49.426;2023-02-28T10:51:53;0.82;64.63
67192;HTU21D;54120;53.504;49.426;2023-02-28T10:54:34;1.07;63.63
67192;HTU21D;54120;53.504;49.426;2023-02-28T10:57:20;0.87;63.91
67192;HTU21D;54120;53.504;49.426;2023-02-28T10:59:52;0.89;64.34
67192;HTU21D;54120;53.504;49.426;2023-02-28T11:02:36;0.91;64.75
67192;HTU21D;54120;53.504;49.426;2023-02-28T11:05:34;0.99;64.50
67192;HTU21D;54120;53.504;49.426;2023-02-28T11:08:11;0.90;64.17
67192;HTU21D;54120;53.504;49.426;2023-02-28T11:10:38;0.88;65.46
67192;HTU21D;54120;53.504;49.426;2023-02-28T11:13:05;0.86;64.97
67192;HTU21D;54120;53.504;49.426;2023-02-28T11:15:35;1.05;64.26
67192;HTU21D;54120;53.504;49.426;2023-02-28T11:20:38;0.51;65.68
67192;HTU21D;54120;53.504;49.426;2023-02-28T11:23:12;0.37;66.20
67192;HTU21D;54120;53.504;49.426;2023-02-28T11:25:39;0.32;66.75
67192;HTU21D;54120;53.504;49.426;2023-02-28T11:28:28;0.33;66.28
67192;HTU21D;54120;53.504;49.426;2023-02-28T11:36:22;0.65;65.59
67192;HTU21D;54120;53.504;49.426;2023-02-28T11:38:59;0.61;66.13
67192;HTU21D;54120;53.504;49.426;2023-02-28T11:41:34;0.44;67.04
67192;HTU21D;54120;53.504;49.426;2023-02-28T11:47:17;0.48;67.23
67192;HTU21D;54120;53.504;49.426;2023-02-28T11:52:54;0.47;67.57
67192;HTU21D;54120;53.504;49.426;2023-02-28T11:55:27;0.49;67.45
67192;HTU21D;54120;53.504;49.426;2023-02-28T12:03:58;0.33;68.00
67192;HTU21D;54120;53.504;49.426;2023-02-28T12:06:42;0.36;67.28
67192;HTU21D;54120;53.504;49.426;2023-02-28T12:12:05;0.46;67.58
67192;HTU21D;54120;53.504;49.426;2023-02-28T12:14:50;0.48;66.97
67192;HTU21D;54120;53.504;49.426;2023-02-28T12:22:36;0.20;67.23
67192;HTU21D;54120;53.504;49.426;2023-02-28T12:25:28;0.10;67.65
67192;HTU21D;54120;53.504;49.426;2023-02-28T12:28:03;0.09;67.83
67192;HTU21D;54120;53.504;49.426;2023-02-28T12:30:35;0.20;68.01
67192;HTU21D;54120;53.504;49.426;2023-02-28T12:33:17;0.18;67.41
67192;HTU21D;54120;53.504;49.426;2023-02-28T12:35:54;0.08;68.39
67192;HTU21D;54120;53.504;49.426;2023-02-28T12:41:39;0.03;68.35
67192;HTU21D;54120;53.504;49.426;2023-02-28T12:44:33;0.06;68.41
67192;HTU21D;54120;53.504;49.426;2023-02-28T12:47:04;0.04;68.65
67192;HTU21D;54120;53.504;49.426;2023-02-28T12:49:41;-0.08;68.46
67192;HTU21D;54120;53.504;49.426;2023-02-28T12:52:20;-0.11;69.18
67192;HTU21D;54120;53.504;49.426;2023-02-28T13:02:41;-0.31;69.87
67192;HTU21D;54120;53.504;49.426;2023-02-28T13:10:48;-0.34;70.59
67192;HTU21D;54120;53.504;49.426;2023-02-28T13:13:28;-0.37;70.55
67192;HTU21D;54120;53.504;49.426;2023-02-28T13:16:08;-0.49;71.29
67192;HTU21D;54120;53.504;49.426;2023-02-28T13:18:45;-0.43;71.10
67192;HTU21D;54120;53.504;49.426;2023-02-28T13:21:29;-0.21;70.88
67192;HTU21D;54120;53.504;49.426;2023-02-28T13:27:10;-0.43;71.36
67192;HTU21D;54120;53.504;49.426;2023-02-28T13:34:37;-0.39;71.26
67192;HTU21D;54120;53.504;49.426;2023-02-28T13:39:54;-0.79;73.28
67192;HTU21D;54120;53.504;49.426;2023-02-28T13:42:54;-0.83;73.21
67192;HTU21D;54120;53.504;49.426;2023-02-28T13:45:27;-0.90;73.64
67192;HTU21D;54120;53.504;49.426;2023-02-28T13:48:20;-1.00;74.02
67192;HTU21D;54120;53.504;49.426;2023-02-28T13:50:49;-1.04;74.44
67192;HTU21D;54120;53.504;49.426;2023-02-28T13:55:57;-1.33;76.39
67192;HTU21D;54120;53.504;49.426;2023-02-28T13:58:53;-1.42;77.31
67192;HTU21D;54120;53.504;49.426;2023-02-28T14:07:05;-1.74;79.41
67192;HTU21D;54120;53.504;49.426;2023-02-28T14:09:35;-1.79;79.63
67192;HTU21D;54120;53.504;49.426;2023-02-28T14:20:40;-2.08;81.52
67192;HTU21D;54120;53.504;49.426;2023-02-28T14:26:50;-2.16;82.00
67192;HTU21D;54120;53.504;49.426;2023-02-28T14:32:10;-2.28;82.33
67192;HTU21D;54120;53.504;49.426;2023-02-28T14:37:24;-2.32;82.17
67192;HTU21D;54120;53.504;49.426;2023-02-28T14:39:53;-2.35;82.31
67192;HTU21D;54120;53.504;49.426;2023-02-28T14:42:37;-2.44;82.43
67192;HTU21D;54120;53.504;49.426;2023-02-28T14:45:20;-2.45;82.30
67192;HTU21D;54120;53.504;49.426;2023-02-28T14:47:51;-2.50;82.29
67192;HTU21D;54120;53.504;49.426;2023-02-28T14:50:29;-2.50;82.39
67192;HTU21D;54120;53.504;49.426;2023-02-28T14:52:57;-2.54;82.48
67192;HTU21D;54120;53.504;49.426;2023-02-28T14:55:29;-2.60;82.32
67192;HTU21D;54120;53.504;49.426;2023-02-28T14:57:59;-2.63;82.25
67192;HTU21D;54120;53.504;49.426;2023-02-28T15:00:28;-2.63;82.46
67192;HTU21D;54120;53.504;49.426;2023-02-28T15:02:55;-2.65;82.06
67192;HTU21D;54120;53.504;49.426;2023-02-28T15:05:34;-2.65;82.07
67192;HTU21D;54120;53.504;49.426;2023-02-28T15:08:18;-2.64;81.81
67192;HTU21D;54120;53.504;49.426;2023-02-28T15:13:16;-2.64;81.58
67192;HTU21D;54120;53.504;49.426;2023-02-28T15:15:51;-2.68;81.68
67192;HTU21D;54120;53.504;49.426;2023-02-28T15:20:50;-2.68;81.66
67192;HTU21D;54120;53.504;49.426;2023-02-28T15:23:17;-2.73;81.56
67192;HTU21D;54120;53.504;49.426;2023-02-28T15:25:44;-2.80;82.01
67192;HTU21D;54120;53.504;49.426;2023-02-28T15:28:18;-2.82;82.38
67192;HTU21D;54120;53.504;49.426;2023-02-28T15:30:53;-2.84;82.15
67192;HTU21D;54120;53.504;49.426;2023-02-28T15:33:23;-2.94;82.39
67192;HTU21D;54120;53.504;49.426;2023-02-28T15:35:51;-2.95;82.36
67192;HTU21D;54120;53.504;49.426;2023-02-28T15:38:25;-2.97;82.50
67192;HTU21D;54120;53.504;49.426;2023-02-28T15:40:53;-3.03;82.54
67192;HTU21D;54120;53.504;49.426;2023-02-28T15:43:36;-3.03;82.16
67192;HTU21D;54120;53.504;49.426;2023-02-28T15:46:11;-3.02;82.35
67192;HTU21D;54120;53.504;49.426;2023-02-28T15:48:44;-3.04;81.77
67192;HTU21D;54120;53.504;49.426;2023-02-28T15:51:20;-3.06;81.97
67192;HTU21D;54120;53.504;49.426;2023-02-28T15:56:27;-3.08;81.76
67192;HTU21D;54120;53.504;49.426;2023-02-28T15:58:55;-3.09;81.52
67192;HTU21D;54120;53.504;49.426;2023-02-28T16:01:36;-3.13;81.52
67192;HTU21D;54120;53.504;49.426;2023-02-28T16:04:05;-3.15;81.39
67192;HTU21D;54120;53.504;49.426;2023-02-28T16:06:40;-3.12;81.45
67192;HTU21D;54120;53.504;49.426;2023-02-28T16:09:15;-3.16;81.49
67192;HTU21D;54120;53.504;49.426;2023-02-28T16:11:53;-3.22;81.70
67192;HTU21D;54120;53.504;49.426;2023-02-28T16:14:22;-3.25;81.91
67192;HTU21D;54120;53.504;49.426;2023-02-28T16:16:51;-3.25;81.97
67192;HTU21D;54120;53.504;49.426;2023-02-28T16:19:18;-3.32;82.18
67192;HTU21D;54120;53.504;49.426;2023-02-28T16:21:45;-3.35;82.25
67192;HTU21D;54120;53.504;49.426;2023-02-28T16:24:11;-3.38;82.35
67192;HTU21D;54120;53.504;49.426;2023-02-28T16:26:40;-3.37;82.58
67192;HTU21D;54120;53.504;49.426;2023-02-28T16:29:08;-3.39;82.31
67192;HTU21D;54120;53.504;49.426;2023-02-28T16:31:37;-3.40;82.29
67192;HTU21D;54120;53.504;49.426;2023-02-28T16:34:04;-3.45;82.12
67192;HTU21D;54120;53.504;49.426;2023-02-28T16:36:30;-3.47;82.36
67192;HTU21D;54120;53.504;49.426;2023-02-28T16:38:56;-3.50;82.78
67192;HTU21D;54120;53.504;49.426;2023-02-28T16:41:25;-3.55;82.66
67192;HTU21D;54120;53.504;49.426;2023-02-28T16:43:54;-3.53;82.74
67192;HTU21D;54120;53.504;49.426;2023-02-28T16:46:34;-3.51;82.66
67192;HTU21D;54120;53.504;49.426;2023-02-28T16:49:00;-3.53;82.30
67192;HTU21D;54120;53.504;49.426;2023-02-28T16:51:26;-3.58;82.43
67192;HTU21D;54120;53.504;49.426;2023-02-28T16:53:52;-3.57;82.43
67192;HTU21D;54120;53.504;49.426;2023-02-28T16:56:20;-3.61;82.71
67192;HTU21D;54120;53.504;49.426;2023-02-28T16:58:47;-3.62;82.81
67192;HTU21D;54120;53.504;49.426;2023-02-28T17:01:14;-3.66;82.69
67192;HTU21D;54120;53.504;49.426;2023-02-28T17:03:41;-3.66;82.58
67192;HTU21D;54120;53.504;49.426;2023-02-28T17:06:20;-3.67;82.52
67192;HTU21D;54120;53.504;49.426;2023-02-28T17:08:48;-3.67;82.42
67192;HTU21D;54120;53.504;49.426;2023-02-28T17:11:15;-3.63;82.32
67192;HTU21D;54120;53.504;49.426;2023-02-28T17:13:42;-3.58;82.04
67192;HTU21D;54120;53.504;49.426;2023-02-28T17:16:30;-3.50;81.79
67192;HTU21D;54120;53.504;49.426;2023-02-28T17:19:01;-3.43;81.60
67192;HTU21D;54120;53.504;49.426;2023-02-28T17:21:28;-3.36;81.59
67192;HTU21D;54120;53.504;49.426;2023-02-28T17:23:54;-3.27;80.98
67192;HTU21D;54120;53.504;49.426;2023-02-28T17:26:21;-3.27;81.03
67192;HTU21D;54120;53.504;49.426;2023-02-28T17:28:53;-3.25;80.89
67192;HTU21D;54120;53.504;49.426;2023-02-28T17:31:24;-3.28;80.85
67192;HTU21D;54120;53.504;49.426;2023-02-28T17:33:51;-3.30;80.94
67192;HTU21D;54120;53.504;49.426;2023-02-28T17:36:22;-3.35;80.85
67192;HTU21D;54120;53.504;49.426;2023-02-28T17:38:49;-3.33;80.94
67192;HTU21D;54120;53.504;49.426;2023-02-28T17:41:15;-3.33;80.68